createdAt,value
2023-05-19T00:01:16.724Z,100.00
2023-05-19T00:03:54.894Z,100.00
2023-05-19T00:06:27.304Z,100.00
2023-05-19T00:08:59.520Z,100.00
2023-05-19T00:11:28.092Z,100.00
2023-05-19T00:13:55.976Z,100.00
2023-05-19T00:16:23.806Z,100.00
2023-05-19T00:18:51.834Z,100.00
2023-05-19T00:21:18.876Z,100.00
2023-05-19T00:23:45.707Z,100.00
2023-05-19T00:26:12.783Z,100.00
2023-05-19T00:28:39.450Z,100.00
2023-05-19T00:31:06.457Z,100.00
2023-05-19T00:33:33.957Z,100.00
2023-05-19T00:36:05.862Z,100.00
2023-05-19T00:38:34.596Z,100.00
2023-05-19T00:41:02.620Z,100.00
2023-05-19T00:43:34.335Z,100.00
2023-05-19T00:46:01.013Z,100.00
2023-05-19T00:48:27.742Z,100.00
2023-05-19T00:51:02.079Z,100.00
2023-05-19T00:53:29.393Z,100.00
2023-05-19T00:55:56.528Z,100.00
2023-05-19T00:58:25.652Z,100.00
2023-05-19T01:00:53.071Z,100.00
2023-05-19T01:03:20.538Z,100.00
2023-05-19T01:05:49.925Z,100.00
2023-05-19T01:08:16.583Z,100.00
2023-05-19T01:10:43.234Z,100.00
2023-05-19T01:13:10.110Z,100.00
2023-05-19T01:15:51.892Z,100.00
2023-05-19T01:18:29.500Z,100.00
2023-05-19T01:21:22.966Z,100.00
2023-05-19T01:24:06.342Z,100.00
2023-05-19T01:26:54.308Z,100.00
2023-05-19T01:30:08.675Z,100.00
2023-05-19T01:32:36.687Z,100.00
2023-05-19T01:35:05.633Z,100.00
2023-05-19T01:37:32.411Z,100.00
2023-05-19T01:39:59.098Z,100.00
2023-05-19T01:42:27.320Z,100.00
2023-05-19T01:44:55.502Z,100.00
2023-05-19T01:47:22.724Z,100.00
2023-05-19T01:49:49.350Z,100.00
2023-05-19T01:52:15.965Z,100.00
2023-05-19T01:54:42.637Z,100.00
2023-05-19T01:57:20.091Z,100.00
2023-05-19T01:59:54.535Z,100.00
2023-05-19T02:02:31.430Z,100.00
2023-05-19T02:05:09.592Z,100.00
2023-05-19T02:07:44.309Z,100.00
2023-05-19T02:10:14.842Z,100.00
2023-05-19T02:12:46.164Z,100.00
2023-05-19T02:15:18.057Z,100.00
2023-05-19T02:17:51.866Z,100.00
2023-05-19T02:20:18.865Z,100.00
2023-05-19T02:22:45.845Z,100.00
2023-05-19T02:25:12.519Z,100.00
2023-05-19T02:27:39.703Z,100.00
2023-05-19T02:30:07.247Z,100.00
2023-05-19T02:32:33.999Z,100.00
2023-05-19T02:35:00.696Z,100.00
2023-05-19T02:37:31.208Z,100.00
2023-05-19T02:39:58.155Z,100.00
2023-05-19T02:42:24.843Z,100.00
2023-05-19T02:44:52.427Z,100.00
2023-05-19T02:47:19.095Z,100.00
2023-05-19T02:49:45.955Z,100.00
2023-05-19T02:52:12.625Z,100.00
2023-05-19T02:54:39.241Z,100.00
2023-05-19T02:57:06.853Z,100.00
2023-05-19T02:59:33.710Z,100.00
2023-05-19T03:02:01.795Z,100.00
2023-05-19T03:04:29.891Z,100.00
2023-05-19T03:07:00.099Z,100.00
2023-05-19T03:09:26.796Z,100.00
2023-05-19T03:11:53.423Z,100.00
2023-05-19T03:14:24.154Z,100.00
2023-05-19T03:16:51.115Z,100.00
2023-05-19T03:19:18.300Z,100.00
2023-05-19T03:21:46.057Z,100.00
2023-05-19T03:24:12.960Z,100.00
2023-05-19T03:26:39.602Z,100.00
2023-05-19T03:29:06.368Z,100.00
2023-05-19T03:31:34.114Z,100.00
2023-05-19T03:34:00.988Z,100.00
2023-05-19T03:36:32.024Z,100.00
2023-05-19T03:38:59.562Z,100.00
2023-05-19T03:41:26.128Z,100.00
2023-05-19T03:43:52.752Z,100.00
2023-05-19T03:46:19.462Z,100.00
2023-05-19T03:48:46.181Z,100.00
2023-05-19T03:51:13.572Z,100.00
2023-05-19T03:53:41.241Z,100.00
2023-05-19T03:56:08.891Z,100.00
2023-05-19T03:58:37.096Z,100.00
2023-05-19T04:01:03.743Z,100.00
2023-05-19T04:03:30.593Z,100.00
2023-05-19T04:05:57.229Z,100.00
2023-05-19T04:08:23.849Z,100.00
2023-05-19T04:10:50.450Z,100.00
2023-05-19T04:13:17.104Z,100.00
2023-05-19T04:15:43.864Z,100.00
2023-05-19T04:18:10.963Z,100.00
2023-05-19T04:20:37.601Z,100.00
2023-05-19T04:23:04.305Z,100.00
2023-05-19T04:25:30.929Z,100.00
2023-05-19T04:27:57.973Z,100.00
2023-05-19T04:30:25.048Z,100.00
2023-05-19T04:32:53.803Z,100.00
2023-05-19T04:35:21.019Z,100.00
2023-05-19T04:37:48.523Z,100.00
2023-05-19T04:40:15.984Z,100.00
2023-05-19T04:42:42.846Z,100.00
2023-05-19T04:45:10.167Z,100.00
2023-05-19T04:47:39.311Z,100.00
2023-05-19T04:50:07.484Z,100.00
2023-05-19T04:52:34.152Z,100.00
2023-05-19T04:55:00.918Z,100.00
2023-05-19T04:57:27.546Z,100.00
2023-05-19T04:59:59.883Z,100.00
2023-05-19T05:02:29.249Z,100.00
2023-05-19T05:04:56.757Z,100.00
2023-05-19T05:07:23.772Z,100.00
2023-05-19T05:09:50.540Z,100.00
2023-05-19T05:12:18.609Z,100.00
2023-05-19T05:14:45.852Z,100.00
2023-05-19T05:17:13.376Z,100.00
2023-05-19T05:19:40.689Z,100.00
2023-05-19T05:22:07.846Z,100.00
2023-05-19T05:24:34.836Z,100.00
2023-05-19T05:27:01.519Z,100.00
2023-05-19T05:29:28.203Z,100.00
2023-05-19T05:31:54.847Z,100.00
2023-05-19T05:34:21.555Z,100.00
2023-05-19T05:36:48.288Z,100.00
2023-05-19T05:39:14.985Z,100.00
2023-05-19T05:41:41.570Z,100.00
2023-05-19T05:44:08.253Z,100.00
2023-05-19T05:46:35.550Z,100.00
2023-05-19T05:49:02.564Z,100.00
2023-05-19T05:51:29.450Z,100.00
2023-05-19T05:53:57.552Z,100.00
2023-05-19T05:56:24.435Z,100.00
2023-05-19T05:58:51.077Z,100.00
2023-05-19T06:01:18.005Z,100.00
2023-05-19T06:03:45.133Z,100.00
2023-05-19T06:06:12.471Z,100.00
2023-05-19T06:08:39.110Z,100.00
2023-05-19T06:11:10.333Z,100.00
2023-05-19T06:13:38.073Z,99.32
2023-05-19T06:16:05.916Z,98.46
2023-05-19T06:18:32.631Z,99.07
2023-05-19T06:20:59.349Z,98.98
2023-05-19T06:23:27.008Z,98.38
2023-05-19T06:25:53.645Z,99.54
2023-05-19T06:28:20.398Z,97.75
2023-05-19T06:30:47.057Z,98.43
2023-05-19T06:33:13.679Z,99.21
2023-05-19T06:35:40.560Z,100.00
2023-05-19T06:38:07.177Z,100.00
2023-05-19T06:40:34.093Z,100.00
2023-05-19T06:43:00.872Z,100.00
2023-05-19T06:45:27.534Z,99.72
2023-05-19T06:47:54.741Z,95.84
2023-05-19T06:50:22.466Z,95.99
2023-05-19T06:52:49.104Z,96.29
2023-05-19T06:55:17.974Z,97.12
2023-05-19T06:57:44.650Z,97.46
2023-05-19T07:00:13.420Z,95.37
2023-05-19T07:02:42.009Z,94.74
2023-05-19T07:05:10.273Z,91.78
2023-05-19T07:07:36.855Z,87.64
2023-05-19T07:10:03.706Z,88.58
2023-05-19T07:12:30.621Z,90.53
2023-05-19T07:14:57.279Z,88.43
2023-05-19T07:17:23.885Z,89.53
2023-05-19T07:19:50.747Z,88.50
2023-05-19T07:22:17.328Z,90.98
2023-05-19T07:24:44.031Z,89.50
2023-05-19T07:27:10.822Z,86.19
2023-05-19T07:29:37.436Z,87.20
2023-05-19T07:32:04.435Z,86.31
2023-05-19T07:34:31.233Z,84.99
2023-05-19T07:36:57.893Z,82.49
2023-05-19T07:39:27.851Z,76.95
2023-05-19T07:41:55.809Z,79.02
2023-05-19T07:44:22.516Z,80.91
2023-05-19T07:46:49.174Z,76.71
2023-05-19T07:49:15.812Z,74.48
2023-05-19T07:51:42.469Z,74.84
2023-05-19T07:54:09.279Z,75.72
2023-05-19T07:56:36.261Z,73.50
2023-05-19T07:59:03.827Z,73.23
2023-05-19T08:01:31.186Z,72.69
2023-05-19T08:03:58.010Z,71.20
2023-05-19T08:06:25.393Z,73.25
2023-05-19T08:08:52.420Z,73.18
2023-05-19T08:11:19.051Z,70.45
2023-05-19T08:13:48.688Z,69.60
2023-05-19T08:16:16.227Z,70.86
2023-05-19T08:18:42.891Z,69.96
2023-05-19T08:21:09.576Z,68.88
2023-05-19T08:23:37.440Z,68.62
2023-05-19T08:26:04.465Z,70.50
2023-05-19T08:28:31.521Z,68.86
2023-05-19T08:30:58.293Z,68.60
2023-05-19T08:33:25.021Z,66.58
2023-05-19T08:35:51.763Z,68.25
2023-05-19T08:38:18.421Z,67.04
2023-05-19T08:40:47.432Z,66.34
2023-05-19T08:43:14.147Z,68.44
2023-05-19T08:45:48.390Z,66.20
2023-05-19T08:48:17.237Z,68.05
2023-05-19T08:50:57.207Z,65.52
2023-05-19T08:53:33.648Z,66.11
2023-05-19T08:56:24.442Z,66.40
2023-05-19T08:58:51.622Z,66.11
2023-05-19T09:01:19.570Z,67.37
2023-05-19T09:03:47.532Z,67.91
2023-05-19T09:06:14.277Z,66.52
2023-05-19T09:08:42.338Z,65.56
2023-05-19T09:11:10.206Z,67.28
2023-05-19T09:13:37.045Z,65.56
2023-05-19T09:16:04.285Z,66.83
2023-05-19T09:18:31.842Z,67.73
2023-05-19T09:21:00.598Z,62.86
2023-05-19T09:23:29.884Z,64.89
2023-05-19T09:25:57.336Z,65.89
2023-05-19T09:28:34.532Z,67.33
2023-05-19T09:31:05.398Z,66.75
2023-05-19T09:33:36.674Z,67.30
2023-05-19T09:36:06.207Z,66.42
2023-05-19T09:38:33.214Z,65.18
2023-05-19T09:41:01.057Z,63.41
2023-05-19T09:43:33.628Z,62.67
2023-05-19T09:46:06.081Z,63.37
2023-05-19T09:48:34.662Z,61.49
2023-05-19T09:51:02.398Z,62.08
2023-05-19T09:53:32.708Z,61.08
2023-05-19T09:56:01.974Z,58.73
2023-05-19T09:58:34.752Z,60.08
2023-05-19T10:01:02.204Z,60.58
2023-05-19T10:03:29.976Z,60.81
2023-05-19T10:05:57.562Z,62.58
2023-05-19T10:08:26.603Z,65.50
2023-05-19T10:10:54.089Z,64.24
2023-05-19T10:13:22.218Z,60.55
2023-05-19T10:15:57.976Z,59.57
2023-05-19T10:18:26.703Z,57.93
2023-05-19T10:20:54.361Z,55.33
2023-05-19T10:23:22.294Z,54.57
2023-05-19T10:25:50.523Z,55.84
2023-05-19T10:28:21.155Z,56.30
2023-05-19T10:30:50.958Z,56.19
2023-05-19T10:33:20.027Z,56.93
2023-05-19T10:36:08.911Z,56.71
2023-05-19T10:38:53.351Z,55.33
2023-05-19T10:41:27.168Z,58.12
2023-05-19T10:43:53.769Z,55.00
2023-05-19T10:46:25.492Z,55.92
2023-05-19T10:48:52.319Z,57.36
2023-05-19T10:51:19.048Z,55.94
2023-05-19T10:53:50.200Z,55.34
2023-05-19T10:56:36.733Z,53.43
2023-05-19T10:59:03.801Z,53.70
2023-05-19T11:01:33.309Z,52.22
2023-05-19T11:04:11.011Z,54.65
2023-05-19T11:06:38.791Z,50.71
2023-05-19T11:09:34.087Z,53.34
2023-05-19T11:12:06.923Z,50.51
2023-05-19T11:14:34.934Z,51.18
2023-05-19T11:17:01.657Z,53.17
2023-05-19T11:19:33.217Z,51.31
2023-05-19T11:22:11.073Z,49.14
2023-05-19T11:24:40.406Z,49.28
2023-05-19T11:27:26.161Z,49.93
2023-05-19T11:29:53.973Z,46.76
2023-05-19T11:32:22.607Z,48.63
2023-05-19T11:34:50.303Z,48.27
2023-05-19T11:37:17.262Z,49.39
2023-05-19T11:39:46.403Z,46.97
2023-05-19T11:42:13.201Z,47.29
2023-05-19T11:44:41.438Z,47.54
2023-05-19T11:47:08.669Z,46.49
2023-05-19T11:49:35.434Z,44.39
2023-05-19T11:52:02.646Z,49.01
2023-05-19T11:54:32.264Z,50.57
2023-05-19T11:57:04.014Z,48.16
2023-05-19T11:59:33.471Z,46.57
2023-05-19T12:02:26.094Z,45.97
2023-05-19T12:04:53.920Z,46.48
2023-05-19T12:07:23.471Z,45.36
2023-05-19T12:09:52.143Z,49.28
2023-05-19T12:12:20.462Z,47.17
2023-05-19T12:14:48.031Z,46.16
2023-05-19T12:17:17.091Z,47.71
2023-05-19T12:19:45.663Z,43.82
2023-05-19T12:22:14.676Z,42.49
2023-05-19T12:24:43.174Z,43.23
2023-05-19T12:27:18.464Z,41.83
2023-05-19T12:29:51.748Z,45.12
2023-05-19T12:32:19.699Z,45.88
2023-05-19T12:34:46.412Z,44.83
2023-05-19T12:37:13.144Z,44.82
2023-05-19T12:39:40.726Z,44.10
2023-05-19T12:42:12.393Z,40.40
2023-05-19T12:44:44.724Z,43.31
2023-05-19T12:47:11.310Z,43.30
2023-05-19T12:49:53.288Z,43.57
2023-05-19T12:52:23.081Z,39.63
2023-05-19T12:55:01.026Z,39.90
2023-05-19T12:57:35.127Z,42.00
2023-05-19T13:00:07.156Z,44.35
2023-05-19T13:02:36.176Z,41.80
2023-05-19T13:05:05.225Z,42.19
2023-05-19T13:07:32.229Z,41.91
2023-05-19T13:09:58.916Z,42.34
2023-05-19T13:12:26.167Z,42.23
2023-05-19T13:14:55.420Z,42.55
2023-05-19T13:17:22.346Z,39.57
2023-05-19T13:19:49.175Z,39.63
2023-05-19T13:22:15.797Z,43.53
2023-05-19T13:24:42.417Z,40.37
2023-05-19T13:27:09.079Z,40.54
2023-05-19T13:29:36.093Z,41.99
2023-05-19T13:32:02.722Z,41.85
2023-05-19T13:34:29.388Z,38.47
2023-05-19T13:36:56.099Z,40.95
2023-05-19T13:39:22.740Z,39.82
2023-05-19T13:41:49.462Z,42.02
2023-05-19T13:44:16.729Z,43.07
2023-05-19T13:46:45.646Z,43.12
2023-05-19T13:49:13.581Z,43.07
2023-05-19T13:51:43.732Z,41.91
2023-05-19T13:54:10.740Z,42.01
2023-05-19T13:56:37.500Z,40.79
2023-05-19T13:59:04.275Z,40.50
2023-05-19T14:01:31.087Z,39.79
2023-05-19T14:03:57.868Z,38.43
2023-05-19T14:06:24.879Z,39.22
2023-05-19T14:08:51.498Z,43.04
2023-05-19T14:11:21.680Z,42.53
2023-05-19T14:13:52.515Z,42.57
2023-05-19T14:16:22.074Z,41.26
2023-05-19T14:18:49.296Z,40.25
2023-05-19T14:21:15.968Z,38.84
2023-05-19T14:23:42.578Z,37.62
2023-05-19T14:26:09.234Z,40.38
2023-05-19T14:28:35.835Z,39.71
2023-05-19T14:31:02.553Z,37.02
2023-05-19T14:33:32.709Z,38.01
2023-05-19T14:36:01.639Z,37.74
2023-05-19T14:38:29.503Z,35.55
2023-05-19T14:40:56.513Z,33.72
2023-05-19T14:43:23.393Z,33.05
2023-05-19T14:45:50.117Z,31.77
2023-05-19T14:48:18.187Z,31.58
2023-05-19T14:50:46.529Z,31.07
2023-05-19T14:53:13.163Z,28.60
2023-05-19T14:55:39.972Z,29.22
2023-05-19T14:58:15.830Z,30.96
2023-05-19T15:00:53.318Z,32.46
2023-05-19T15:03:20.052Z,34.29
2023-05-19T15:05:47.039Z,31.80
2023-05-19T15:08:13.728Z,33.91
2023-05-19T15:10:40.438Z,36.29
2023-05-19T15:13:07.117Z,36.50
2023-05-19T15:15:33.779Z,39.20
2023-05-19T15:18:00.663Z,39.21
2023-05-19T15:20:29.448Z,37.15
2023-05-19T15:22:56.366Z,37.99
2023-05-19T15:25:23.030Z,40.11
2023-05-19T15:27:49.700Z,38.26
2023-05-19T15:30:16.459Z,39.25
2023-05-19T15:32:43.364Z,37.13
2023-05-19T15:35:10.137Z,37.46
2023-05-19T15:37:36.843Z,36.25
2023-05-19T15:40:04.455Z,36.66
2023-05-19T15:42:31.161Z,37.42
2023-05-19T15:44:57.790Z,39.28
2023-05-19T15:47:24.648Z,39.02
2023-05-19T15:49:51.599Z,38.40
2023-05-19T15:52:18.301Z,37.11
2023-05-19T15:54:45.030Z,35.32
2023-05-19T15:57:13.647Z,35.95
2023-05-19T15:59:40.399Z,35.03
2023-05-19T16:02:07.758Z,34.85
2023-05-19T16:04:34.465Z,33.51
2023-05-19T16:07:01.052Z,33.93
2023-05-19T16:09:27.705Z,34.66
2023-05-19T16:11:54.414Z,36.00
2023-05-19T16:14:20.998Z,35.38
2023-05-19T16:16:47.665Z,36.32
2023-05-19T16:19:14.425Z,36.76
2023-05-19T16:21:41.095Z,36.09
2023-05-19T16:24:07.694Z,38.67
2023-05-19T16:26:34.621Z,38.59
2023-05-19T16:29:01.223Z,39.79
2023-05-19T16:31:27.990Z,38.76
2023-05-19T16:33:54.629Z,43.59
2023-05-19T16:36:22.943Z,42.74
2023-05-19T16:38:49.596Z,43.77
2023-05-19T16:41:16.265Z,44.70
2023-05-19T16:43:43.063Z,46.67
2023-05-19T16:46:12.214Z,46.13
2023-05-19T16:48:38.989Z,46.91
2023-05-19T16:51:05.692Z,46.16
2023-05-19T16:53:32.376Z,48.82
2023-05-19T16:56:01.941Z,47.38
2023-05-19T16:58:30.309Z,47.52
2023-05-19T17:00:57.849Z,49.99
2023-05-19T17:03:24.784Z,49.67
2023-05-19T17:05:52.521Z,50.36
2023-05-19T17:08:19.214Z,50.97
2023-05-19T17:10:47.715Z,51.63
2023-05-19T17:13:14.449Z,52.18
2023-05-19T17:15:43.245Z,51.45
2023-05-19T17:18:12.575Z,52.04
2023-05-19T17:20:39.316Z,53.42
2023-05-19T17:23:06.096Z,51.63
2023-05-19T17:25:33.577Z,52.36
2023-05-19T17:28:00.462Z,53.22
2023-05-19T17:30:27.137Z,55.76
2023-05-19T17:32:53.811Z,56.12
2023-05-19T17:35:20.700Z,55.72
2023-05-19T17:37:47.319Z,57.42
2023-05-19T17:40:14.067Z,56.96
2023-05-19T17:42:40.721Z,57.04
2023-05-19T17:45:08.093Z,56.43
2023-05-19T17:47:34.781Z,57.66
2023-05-19T17:50:01.521Z,57.78
2023-05-19T17:52:28.464Z,58.14
2023-05-19T17:54:55.338Z,60.04
2023-05-19T17:57:25.278Z,60.50
2023-05-19T17:59:52.217Z,60.63
2023-05-19T18:02:19.300Z,61.64
2023-05-19T18:04:46.483Z,63.13
2023-05-19T18:07:14.365Z,62.42
2023-05-19T18:09:46.055Z,63.38
2023-05-19T18:12:12.854Z,64.27
2023-05-19T18:14:39.919Z,67.58
2023-05-19T18:17:06.610Z,71.70
2023-05-19T18:19:33.364Z,74.04
2023-05-19T18:21:59.973Z,75.88
2023-05-19T18:24:26.594Z,76.56
2023-05-19T18:26:53.168Z,77.13
2023-05-19T18:29:19.801Z,77.50
2023-05-19T18:31:46.453Z,77.29
2023-05-19T18:34:14.053Z,78.38
2023-05-19T18:36:41.408Z,80.55
2023-05-19T18:39:10.052Z,80.25
2023-05-19T18:41:37.693Z,80.57
2023-05-19T18:44:06.261Z,79.23
2023-05-19T18:46:33.719Z,80.46
2023-05-19T18:49:00.614Z,81.76
2023-05-19T18:51:27.221Z,81.55
2023-05-19T18:53:53.950Z,84.39
2023-05-19T18:56:25.119Z,85.83
2023-05-19T18:58:52.213Z,84.97
2023-05-19T19:01:18.898Z,86.60
2023-05-19T19:03:49.166Z,86.50
2023-05-19T19:06:20.816Z,86.89
2023-05-19T19:08:47.616Z,86.54
2023-05-19T19:11:14.193Z,88.12
2023-05-19T19:13:40.878Z,87.74
2023-05-19T19:16:07.591Z,88.12
2023-05-19T19:18:36.380Z,87.81
2023-05-19T19:21:05.444Z,87.89
2023-05-19T19:23:32.583Z,87.66
2023-05-19T19:25:59.276Z,89.46
2023-05-19T19:28:26.170Z,89.13
2023-05-19T19:30:52.784Z,90.26
2023-05-19T19:33:19.560Z,90.03
2023-05-19T19:35:46.985Z,90.69
2023-05-19T19:38:13.840Z,91.09
2023-05-19T19:40:40.517Z,91.75
2023-05-19T19:43:07.260Z,91.94
2023-05-19T19:45:34.928Z,93.19
2023-05-19T19:48:01.831Z,93.21
2023-05-19T19:50:28.657Z,93.40
2023-05-19T19:52:55.423Z,94.18
2023-05-19T19:55:22.131Z,94.04
2023-05-19T19:57:51.104Z,95.54
2023-05-19T20:00:18.585Z,95.72
2023-05-19T20:03:03.068Z,94.69
2023-05-19T20:05:31.421Z,94.34
2023-05-19T20:07:58.029Z,93.93
2023-05-19T20:10:24.703Z,93.80
2023-05-19T20:12:51.990Z,93.78
2023-05-19T20:15:19.515Z,94.60
2023-05-19T20:17:46.228Z,95.71
2023-05-19T20:20:13.319Z,95.35
2023-05-19T20:22:40.197Z,94.95
2023-05-19T20:25:07.345Z,96.33
2023-05-19T20:27:33.911Z,97.39
2023-05-19T20:30:00.856Z,97.98
2023-05-19T20:32:27.547Z,97.86
2023-05-19T20:34:54.273Z,97.61
2023-05-19T20:37:22.234Z,97.71
2023-05-19T20:39:48.931Z,97.23
2023-05-19T20:42:15.563Z,97.77
2023-05-19T20:44:42.524Z,97.92
2023-05-19T20:47:09.177Z,98.46
2023-05-19T20:49:36.028Z,98.21
2023-05-19T20:52:02.665Z,98.62
2023-05-19T20:54:29.320Z,98.27
2023-05-19T20:56:56.050Z,99.43
2023-05-19T20:59:22.802Z,99.53
2023-05-19T21:01:49.544Z,99.99
2023-05-19T21:04:16.345Z,100.00
2023-05-19T21:06:43.045Z,100.00
2023-05-19T21:09:10.920Z,100.00
2023-05-19T21:11:37.640Z,100.00
2023-05-19T21:14:04.500Z,100.00
2023-05-19T21:16:31.569Z,100.00
2023-05-19T21:18:58.394Z,100.00
2023-05-19T21:21:25.318Z,100.00
2023-05-19T21:23:52.004Z,100.00
2023-05-19T21:26:18.768Z,100.00
2023-05-19T21:28:45.566Z,100.00
2023-05-19T21:31:12.509Z,100.00
2023-05-19T21:33:39.134Z,100.00
2023-05-19T21:36:06.019Z,100.00
2023-05-19T21:38:32.637Z,100.00
2023-05-19T21:40:59.330Z,100.00
2023-05-19T21:43:26.093Z,100.00
2023-05-19T21:45:52.736Z,100.00
2023-05-19T21:48:19.553Z,100.00
2023-05-19T21:50:46.242Z,100.00
2023-05-19T21:53:12.860Z,100.00
2023-05-19T21:55:39.614Z,100.00
2023-05-19T21:58:06.241Z,100.00
2023-05-19T22:00:33.142Z,100.00
2023-05-19T22:03:00.199Z,100.00
2023-05-19T22:05:29.040Z,100.00
2023-05-19T22:07:55.880Z,100.00
2023-05-19T22:10:22.582Z,100.00
2023-05-19T22:12:49.203Z,100.00
2023-05-19T22:15:15.971Z,100.00
2023-05-19T22:17:42.899Z,100.00
2023-05-19T22:20:10.260Z,100.00
2023-05-19T22:22:36.861Z,100.00
2023-05-19T22:25:03.900Z,100.00
2023-05-19T22:27:30.766Z,100.00
2023-05-19T22:29:59.677Z,100.00
2023-05-19T22:32:26.412Z,100.00
2023-05-19T22:34:53.170Z,100.00
2023-05-19T22:37:21.080Z,100.00
2023-05-19T22:39:47.680Z,100.00
2023-05-19T22:42:14.627Z,100.00
2023-05-19T22:44:41.344Z,100.00
2023-05-19T22:47:13.648Z,100.00
2023-05-19T22:49:43.647Z,100.00
2023-05-19T22:52:11.284Z,100.00
2023-05-19T22:54:38.207Z,100.00
2023-05-19T22:57:05.286Z,100.00
2023-05-19T22:59:31.979Z,100.00
2023-05-19T23:01:58.619Z,100.00
2023-05-19T23:04:25.307Z,100.00
2023-05-19T23:06:52.302Z,100.00
2023-05-19T23:09:19.092Z,100.00
2023-05-19T23:11:46.265Z,100.00
2023-05-19T23:14:12.950Z,100.00
2023-05-19T23:16:39.685Z,100.00
2023-05-19T23:19:06.378Z,100.00
2023-05-19T23:21:33.149Z,100.00
2023-05-19T23:24:00.011Z,100.00
2023-05-19T23:26:27.005Z,100.00
2023-05-19T23:28:53.610Z,100.00
2023-05-19T23:31:20.354Z,100.00
2023-05-19T23:33:47.154Z,100.00
2023-05-19T23:36:13.947Z,100.00
2023-05-19T23:38:40.583Z,100.00
2023-05-19T23:41:07.177Z,100.00
2023-05-19T23:43:33.891Z,100.00
2023-05-19T23:46:01.016Z,100.00
2023-05-19T23:48:29.047Z,100.00
2023-05-19T23:50:55.832Z,100.00
2023-05-19T23:53:22.496Z,100.00
2023-05-19T23:55:49.325Z,100.00
2023-05-19T23:58:16.141Z,100.00
